Time;durP1;ratioP1;P1;durP2;ratioP2;P2;SDS_P1;SDS_P2;PMS_P1;PMS_P2;Temp;Humidity;BMP_temperature;BMP_pressure;BME280_temperature;BME280_humidity;BME280_pressure;Samples;Min_cycle;Max_cycle;Signal;HPM_P1;HPM_P2
2022/03/06 00:01:48;;;;;;;;;86.00;74.25;;;;;;;;5112724;27;46064;-74
2022/03/06 00:04:13;;;;;;;;;88.50;80.75;;;;;;;;5110956;27;45396;-74
2022/03/06 00:06:38;;;;;;;;;86.75;73.50;;;;;;;;5103763;27;47165;-74
2022/03/06 00:09:03;;;;;;;;;89.50;79.25;;;;;;;;5110029;27;45394;-75
2022/03/06 00:11:29;;;;;;;;;92.50;79.00;;;;;;;;5113447;27;45310;-74
2022/03/06 00:13:54;;;;;;;;;97.50;84.50;;;;;;;;5104086;27;45345;-74
2022/03/06 00:16:20;;;;;;;;;88.25;80.75;;;;;;;;5112394;27;45458;-74
2022/03/06 00:18:45;;;;;;;;;92.75;87.00;;;;;;;;5123412;27;45443;-74
2022/03/06 00:21:11;;;;;;;;;101.75;84.25;;;;;;;;5113144;27;45337;-74
2022/03/06 00:23:36;;;;;;;;;96.75;85.75;;;;;;;;5112126;27;46205;-74
2022/03/06 00:26:01;;;;;;;;;102.75;87.50;;;;;;;;5103340;27;46158;-75
2022/03/06 00:28:27;;;;;;;;;98.00;88.25;;;;;;;;5111030;27;45474;-74
2022/03/06 00:30:52;;;;;;;;;88.75;79.50;;;;;;;;5111730;27;45575;-74
2022/03/06 00:33:17;;;;;;;;;96.50;86.75;;;;;;;;5104149;27;45297;-74
2022/03/06 00:35:42;;;;;;;;;89.50;80.25;;;;;;;;5109355;27;47468;-74
2022/03/06 00:38:08;;;;;;;;;97.25;86.50;;;;;;;;5111474;27;45399;-74
2022/03/06 00:40:33;;;;;;;;;95.50;83.50;;;;;;;;5112694;27;45306;-74
2022/03/06 00:42:58;;;;;;;;;87.50;75.50;;;;;;;;5112931;27;45427;-74
2022/03/06 00:45:24;;;;;;;;;91.25;80.75;;;;;;;;5111263;27;45360;-74
2022/03/06 00:47:49;;;;;;;;;89.50;80.25;;;;;;;;5108846;27;45412;-74
2022/03/06 00:50:15;;;;;;;;;86.00;73.50;;;;;;;;5107625;27;45363;-74
2022/03/06 00:52:40;;;;;;;;;88.75;77.25;;;;;;;;5111600;27;46365;-75
2022/03/06 00:55:06;;;;;;;;;89.50;79.75;;;;;;;;5112147;27;45379;-74
2022/03/06 00:57:31;;;;;;;;;88.25;79.75;;;;;;;;5110287;27;45242;-74
2022/03/06 00:59:56;;;;;;;;;88.50;76.50;;;;;;;;5109659;27;45404;-75
2022/03/06 01:02:21;;;;;;;;;91.25;81.50;;;;;;;;5110369;27;45424;-74
2022/03/06 01:04:46;;;;;;;;;92.50;80.50;;;;;;;;5105102;27;48317;-74
2022/03/06 01:07:12;;;;;;;;;86.00;71.25;;;;;;;;5107679;27;45330;-76
2022/03/06 01:09:37;;;;;;;;;88.50;79.50;;;;;;;;5104536;27;45400;-74
2022/03/06 01:12:02;;;;;;;;;86.00;71.75;;;;;;;;5109358;27;47291;-74
2022/03/06 01:14:27;;;;;;;;;86.75;76.50;;;;;;;;5104545;27;45426;-74
2022/03/06 01:16:53;;;;;;;;;87.00;74.25;;;;;;;;5109553;27;45441;-74
2022/03/06 01:19:18;;;;;;;;;87.75;75.75;;;;;;;;5124275;27;45371;-75
2022/03/06 01:21:43;;;;;;;;;87.00;69.25;;;;;;;;5112322;27;45310;-75
2022/03/06 01:24:08;;;;;;;;;87.00;76.75;;;;;;;;5109464;27;45600;-75
2022/03/06 01:26:34;;;;;;;;;86.00;71.75;;;;;;;;5111635;27;45523;-74
2022/03/06 01:29:00;;;;;;;;;85.75;70.00;;;;;;;;5102566;27;45458;-75
2022/03/06 01:31:25;;;;;;;;;84.00;68.25;;;;;;;;5109509;27;45430;-74
2022/03/06 01:33:50;;;;;;;;;84.00;71.00;;;;;;;;5103215;27;46528;-74
2022/03/06 01:36:15;;;;;;;;;84.00;69.75;;;;;;;;5111739;27;45243;-74
2022/03/06 01:38:40;;;;;;;;;78.75;62.75;;;;;;;;5108444;27;45535;-74
2022/03/06 01:41:05;;;;;;;;;88.50;76.75;;;;;;;;5100324;27;45284;-74
2022/03/06 01:43:31;;;;;;;;;84.75;71.00;;;;;;;;5100539;27;45421;-74
2022/03/06 01:45:56;;;;;;;;;82.50;62.00;;;;;;;;5100537;27;45463;-74
2022/03/06 01:48:21;;;;;;;;;87.50;70.75;;;;;;;;5099387;27;45228;-74
2022/03/06 01:50:47;;;;;;;;;80.75;67.00;;;;;;;;5100524;27;45396;-74
2022/03/06 01:53:12;;;;;;;;;84.25;67.00;;;;;;;;5099004;27;47266;-74
2022/03/06 01:55:37;;;;;;;;;80.25;64.00;;;;;;;;5100153;27;45379;-74
2022/03/06 01:58:04;;;;;;;;;83.50;67.25;;;;;;;;5099180;27;45271;-74
2022/03/06 02:00:32;;;;;;;;;81.00;65.25;;;;;;;;5100346;27;45261;-74
2022/03/06 02:02:57;;;;;;;;;83.50;63.50;;;;;;;;5100399;27;46616;-74
2022/03/06 02:05:23;;;;;;;;;80.50;66.00;;;;;;;;5098654;27;45422;-74
2022/03/06 02:07:48;;;;;;;;;81.75;64.75;;;;;;;;5100562;27;45368;-74
2022/03/06 02:10:14;;;;;;;;;77.75;61.75;;;;;;;;5100107;27;45428;-74
2022/03/06 02:12:40;;;;;;;;;79.00;62.50;;;;;;;;5098973;27;48049;-74
2022/03/06 02:15:07;;;;;;;;;76.25;58.50;;;;;;;;5100407;27;45784;-74
2022/03/06 02:17:32;;;;;;;;;81.50;63.50;;;;;;;;5106818;27;45546;-75
2022/03/06 02:19:59;;;;;;;;;77.50;61.25;;;;;;;;5140269;27;47128;-74
2022/03/06 02:22:26;;;;;;;;;77.75;60.25;;;;;;;;5141275;27;45286;-74
2022/03/06 02:24:52;;;;;;;;;82.50;65.75;;;;;;;;5139592;27;45302;-74
2022/03/06 02:27:18;;;;;;;;;85.50;68.75;;;;;;;;5141490;27;45320;-74
2022/03/06 02:29:44;;;;;;;;;73.00;58.50;;;;;;;;5139529;27;46472;-74
2022/03/06 02:32:10;;;;;;;;;75.50;59.25;;;;;;;;5141261;27;46180;-75
2022/03/06 02:34:39;;;;;;;;;73.00;57.50;;;;;;;;5141095;27;45287;-74
2022/03/06 02:37:05;;;;;;;;;78.25;61.25;;;;;;;;5140106;27;45342;-75
2022/03/06 02:39:30;;;;;;;;;79.00;61.50;;;;;;;;5139518;27;46216;-74
2022/03/06 02:41:55;;;;;;;;;80.00;62.50;;;;;;;;5142540;27;48221;-74
2022/03/06 02:44:21;;;;;;;;;81.25;64.25;;;;;;;;5145107;27;45240;-74
2022/03/06 02:46:47;;;;;;;;;79.25;61.50;;;;;;;;5145079;27;45308;-74
2022/03/06 02:49:13;;;;;;;;;82.50;66.25;;;;;;;;5143383;27;47369;-74
2022/03/06 02:51:40;;;;;;;;;77.25;61.00;;;;;;;;5144805;27;45408;-74
2022/03/06 02:54:05;;;;;;;;;83.50;64.25;;;;;;;;5144674;27;45406;-74
2022/03/06 02:56:30;;;;;;;;;82.50;65.50;;;;;;;;5143661;27;45364;-74
2022/03/06 02:58:55;;;;;;;;;80.00;61.50;;;;;;;;5144716;27;45373;-75
2022/03/06 03:01:21;;;;;;;;;79.25;63.25;;;;;;;;5144357;27;46014;-74
2022/03/06 03:03:46;;;;;;;;;80.25;62.25;;;;;;;;5144744;27;45348;-74
2022/03/06 03:06:11;;;;;;;;;76.00;61.50;;;;;;;;5144886;27;45359;-74
2022/03/06 03:08:37;;;;;;;;;84.75;67.75;;;;;;;;5144605;27;45334;-74
2022/03/06 03:11:02;;;;;;;;;79.50;62.50;;;;;;;;5142812;27;47647;-74
2022/03/06 03:13:27;;;;;;;;;82.75;63.00;;;;;;;;5144574;27;45307;-74
2022/03/06 03:15:54;;;;;;;;;80.75;67.25;;;;;;;;5144600;27;45351;-74
2022/03/06 03:18:19;;;;;;;;;82.00;64.00;;;;;;;;5132788;27;46116;-74
2022/03/06 03:20:44;;;;;;;;;84.50;66.75;;;;;;;;5122073;27;46932;-74
2022/03/06 03:23:09;;;;;;;;;85.75;66.75;;;;;;;;5123574;27;45361;-74
2022/03/06 03:25:35;;;;;;;;;81.25;65.25;;;;;;;;5123199;27;45316;-74
2022/03/06 03:28:00;;;;;;;;;81.25;62.75;;;;;;;;5123224;27;45267;-74
2022/03/06 03:30:25;;;;;;;;;78.75;60.25;;;;;;;;5122053;27;47042;-74
2022/03/06 03:32:50;;;;;;;;;82.00;61.50;;;;;;;;5123269;27;45298;-74
2022/03/06 03:35:16;;;;;;;;;83.50;65.25;;;;;;;;5123475;27;45528;-74
2022/03/06 03:37:41;;;;;;;;;79.25;63.00;;;;;;;;5123102;27;45252;-74
2022/03/06 03:40:07;;;;;;;;;86.50;71.25;;;;;;;;5121115;27;47079;-74
2022/03/06 03:42:32;;;;;;;;;80.25;62.00;;;;;;;;5121723;27;46299;-74
2022/03/06 03:44:57;;;;;;;;;82.00;64.00;;;;;;;;5121927;27;45331;-74
2022/03/06 03:47:22;;;;;;;;;78.25;62.00;;;;;;;;5122844;27;45461;-74
2022/03/06 03:49:48;;;;;;;;;83.00;64.75;;;;;;;;5121606;27;48181;-74
2022/03/06 03:52:13;;;;;;;;;84.25;70.00;;;;;;;;5122439;27;45408;-74
2022/03/06 03:54:38;;;;;;;;;83.25;66.50;;;;;;;;5122873;27;45375;-74
2022/03/06 03:57:04;;;;;;;;;82.00;67.50;;;;;;;;5122960;27;45394;-74
2022/03/06 03:59:29;;;;;;;;;81.50;63.25;;;;;;;;5122791;27;45408;-74
2022/03/06 04:01:54;;;;;;;;;79.75;63.75;;;;;;;;5123051;27;45348;-74
2022/03/06 04:04:20;;;;;;;;;81.00;63.75;;;;;;;;5122964;27;45280;-74
2022/03/06 04:06:45;;;;;;;;;82.25;64.00;;;;;;;;5122903;27;45283;-74
2022/03/06 04:09:10;;;;;;;;;81.00;63.50;;;;;;;;5121007;27;48085;-73
2022/03/06 04:11:35;;;;;;;;;85.25;69.25;;;;;;;;5122662;27;45304;-74
2022/03/06 04:14:01;;;;;;;;;82.00;65.75;;;;;;;;5122872;27;45253;-74
2022/03/06 04:16:26;;;;;;;;;80.25;64.50;;;;;;;;5120982;27;46369;-71
2022/03/06 04:18:51;;;;;;;;;83.50;65.00;;;;;;;;5136963;27;46390;-74
2022/03/06 04:21:16;;;;;;;;;83.50;66.50;;;;;;;;5143419;27;45270;-74
2022/03/06 04:23:41;;;;;;;;;83.00;66.50;;;;;;;;5143312;27;45264;-74
2022/03/06 04:26:07;;;;;;;;;84.25;66.00;;;;;;;;5142449;27;45380;-74
2022/03/06 04:28:32;;;;;;;;;85.50;69.00;;;;;;;;5142835;27;45576;-74
2022/03/06 04:30:57;;;;;;;;;78.25;61.75;;;;;;;;5141795;27;45882;-74
2022/03/06 04:33:23;;;;;;;;;80.25;64.50;;;;;;;;5143138;27;45308;-74
2022/03/06 04:35:48;;;;;;;;;84.00;66.75;;;;;;;;5141709;27;46544;-74
2022/03/06 04:38:13;;;;;;;;;83.00;62.75;;;;;;;;5143198;27;45190;-74
2022/03/06 04:40:38;;;;;;;;;74.50;61.25;;;;;;;;5142818;27;45727;-74
2022/03/06 04:43:03;;;;;;;;;84.50;68.00;;;;;;;;5141664;27;45380;-74
2022/03/06 04:45:29;;;;;;;;;85.75;68.25;;;;;;;;5141574;27;47238;-74
2022/03/06 04:47:54;;;;;;;;;84.75;70.00;;;;;;;;5142790;27;45289;-74
2022/03/06 04:50:19;;;;;;;;;81.75;64.50;;;;;;;;5142711;27;45523;-74
2022/03/06 04:52:44;;;;;;;;;87.00;67.75;;;;;;;;5143058;27;45226;-74
2022/03/06 04:55:10;;;;;;;;;81.50;67.00;;;;;;;;5142431;27;45381;-75
2022/03/06 04:57:35;;;;;;;;;83.50;69.25;;;;;;;;5142829;27;46695;-74
2022/03/06 05:00:00;;;;;;;;;83.25;66.00;;;;;;;;5141201;27;45324;-73
2022/03/06 05:02:26;;;;;;;;;81.75;63.50;;;;;;;;5141461;27;45347;-74
2022/03/06 05:04:51;;;;;;;;;81.75;65.25;;;;;;;;5140071;27;45827;-74
2022/03/06 05:07:16;;;;;;;;;83.75;66.75;;;;;;;;5142245;27;45316;-74
2022/03/06 05:09:41;;;;;;;;;78.25;61.25;;;;;;;;5140778;27;45310;-74
2022/03/06 05:12:07;;;;;;;;;80.75;62.25;;;;;;;;5142871;27;45572;-74
2022/03/06 05:14:33;;;;;;;;;79.25;64.00;;;;;;;;5140719;27;45913;-74
2022/03/06 05:16:58;;;;;;;;;82.00;66.50;;;;;;;;5141008;27;47140;-74
2022/03/06 05:19:23;;;;;;;;;83.00;65.25;;;;;;;;5122482;27;45389;-74
2022/03/06 05:21:48;;;;;;;;;85.25;68.75;;;;;;;;5121772;27;45460;-74
2022/03/06 05:24:13;;;;;;;;;81.75;64.25;;;;;;;;5121151;27;45502;-74
2022/03/06 05:26:39;;;;;;;;;79.75;63.00;;;;;;;;5119795;27;48238;-74
2022/03/06 05:29:04;;;;;;;;;81.75;65.75;;;;;;;;5121286;27;45304;-74
2022/03/06 05:31:29;;;;;;;;;86.50;69.50;;;;;;;;5121688;27;45309;-74
2022/03/06 05:33:55;;;;;;;;;82.75;65.00;;;;;;;;5121244;27;45341;-74
2022/03/06 05:36:20;;;;;;;;;83.50;66.25;;;;;;;;5119893;27;47445;-74
2022/03/06 05:38:45;;;;;;;;;86.00;69.25;;;;;;;;5119902;27;45677;-74
2022/03/06 05:41:10;;;;;;;;;86.50;69.00;;;;;;;;5121070;27;45291;-74
2022/03/06 05:43:35;;;;;;;;;88.75;75.00;;;;;;;;5119780;27;45973;-74
2022/03/06 05:46:02;;;;;;;;;82.75;64.00;;;;;;;;5119879;27;47135;-74
2022/03/06 05:48:27;;;;;;;;;80.50;66.00;;;;;;;;5121151;27;45525;-74
2022/03/06 05:50:52;;;;;;;;;84.25;68.75;;;;;;;;5121178;27;45496;-74
2022/03/06 05:53:18;;;;;;;;;85.25;70.25;;;;;;;;5121291;27;45225;-74
2022/03/06 05:55:43;;;;;;;;;83.50;64.50;;;;;;;;5120824;27;45448;-74
2022/03/06 05:58:08;;;;;;;;;83.00;63.25;;;;;;;;5121275;27;45381;-74
2022/03/06 06:00:33;;;;;;;;;89.25;67.75;;;;;;;;5121215;27;45429;-74
2022/03/06 06:02:59;;;;;;;;;82.75;67.00;;;;;;;;5120832;27;45647;-74
2022/03/06 06:05:24;;;;;;;;;85.25;70.00;;;;;;;;5120852;27;45262;-74
2022/03/06 06:07:49;;;;;;;;;84.25;68.25;;;;;;;;5121142;27;45276;-74
2022/03/06 06:10:15;;;;;;;;;83.00;63.50;;;;;;;;5119339;27;45268;-75
2022/03/06 06:12:40;;;;;;;;;88.50;71.25;;;;;;;;5120522;27;45401;-74
2022/03/06 06:15:06;;;;;;;;;83.50;66.75;;;;;;;;5120501;27;45575;-74
2022/03/06 06:17:32;;;;;;;;;86.75;71.50;;;;;;;;5124097;27;45313;-74
2022/03/06 06:19:58;;;;;;;;;84.00;69.25;;;;;;;;5140258;27;45314;-74
2022/03/06 06:22:23;;;;;;;;;83.00;66.50;;;;;;;;5140215;27;46955;-74
2022/03/06 06:24:48;;;;;;;;;86.25;69.50;;;;;;;;5105962;27;45412;-74
2022/03/06 06:27:13;;;;;;;;;82.25;65.75;;;;;;;;5099216;27;45405;-74
2022/03/06 06:29:39;;;;;;;;;88.00;71.25;;;;;;;;5098115;27;45385;-75
2022/03/06 06:32:04;;;;;;;;;86.00;71.00;;;;;;;;5099769;27;45328;-75
2022/03/06 06:34:29;;;;;;;;;87.75;71.75;;;;;;;;5099905;27;46410;-74
2022/03/06 06:36:57;;;;;;;;;85.25;69.75;;;;;;;;5100217;27;45290;-74
2022/03/06 06:39:23;;;;;;;;;82.25;64.00;;;;;;;;5099280;27;45283;-74
2022/03/06 06:41:48;;;;;;;;;85.25;69.00;;;;;;;;5098208;27;46029;-76
2022/03/06 06:44:13;;;;;;;;;85.25;67.75;;;;;;;;5097841;27;47154;-74
2022/03/06 06:46:38;;;;;;;;;89.00;69.25;;;;;;;;5113195;27;45331;-75
2022/03/06 06:49:04;;;;;;;;;86.75;71.75;;;;;;;;5120469;27;45529;-75
2022/03/06 06:51:30;;;;;;;;;86.00;68.25;;;;;;;;5118890;27;46977;-74
2022/03/06 06:53:55;;;;;;;;;85.50;67.50;;;;;;;;5105506;27;48140;-75
2022/03/06 06:56:20;;;;;;;;;87.25;71.25;;;;;;;;5097646;27;45488;-74
2022/03/06 06:58:45;;;;;;;;;89.50;74.50;;;;;;;;5097895;27;45419;-74
2022/03/06 07:01:11;;;;;;;;;85.75;71.75;;;;;;;;5100959;27;45849;-74
2022/03/06 07:03:36;;;;;;;;;87.25;71.75;;;;;;;;5100952;27;45487;-75
2022/03/06 07:06:01;;;;;;;;;87.00;69.75;;;;;;;;5098059;27;45494;-75
2022/03/06 07:08:27;;;;;;;;;88.00;68.25;;;;;;;;5099719;27;45212;-74
2022/03/06 07:10:52;;;;;;;;;89.25;70.00;;;;;;;;5098937;27;45364;-75
2022/03/06 07:13:17;;;;;;;;;89.25;73.50;;;;;;;;5098817;27;46293;-75
2022/03/06 07:15:42;;;;;;;;;90.75;76.50;;;;;;;;5111946;27;45296;-75
2022/03/06 07:18:08;;;;;;;;;86.75;67.50;;;;;;;;5127161;27;45493;-75
2022/03/06 07:20:33;;;;;;;;;83.50;68.50;;;;;;;;5125238;27;45486;-74
2022/03/06 07:22:59;;;;;;;;;89.25;71.75;;;;;;;;5098255;27;45357;-75
2022/03/06 07:25:24;;;;;;;;;87.00;69.50;;;;;;;;5098805;27;45360;-74
2022/03/06 07:27:50;;;;;;;;;87.50;71.00;;;;;;;;5100543;27;45356;-75
2022/03/06 07:30:15;;;;;;;;;87.50;74.75;;;;;;;;5101131;27;47414;-75
2022/03/06 07:32:41;;;;;;;;;86.25;73.75;;;;;;;;5102003;27;45423;-77
2022/03/06 07:35:07;;;;;;;;;90.00;73.00;;;;;;;;5102234;27;46349;-77
2022/03/06 07:37:32;;;;;;;;;89.75;71.50;;;;;;;;5102222;27;45302;-76
2022/03/06 07:39:57;;;;;;;;;85.75;70.00;;;;;;;;5102573;27;45390;-77
2022/03/06 07:42:22;;;;;;;;;86.50;73.00;;;;;;;;5102876;27;45825;-78
2022/03/06 07:44:47;;;;;;;;;88.25;72.50;;;;;;;;5107150;27;45627;-77
2022/03/06 07:47:13;;;;;;;;;87.50;70.75;;;;;;;;5104281;27;45361;-78
2022/03/06 07:49:38;;;;;;;;;84.00;69.00;;;;;;;;5105584;27;45333;-79
2022/03/06 07:52:03;;;;;;;;;81.75;62.25;;;;;;;;5102603;27;46225;-78
2022/03/06 07:54:29;;;;;;;;;84.00;69.75;;;;;;;;5102394;27;45327;-80
2022/03/06 07:56:54;;;;;;;;;85.50;66.00;;;;;;;;5103398;27;45364;-77
2022/03/06 07:59:21;;;;;;;;;80.00;64.25;;;;;;;;5103773;27;47279;-77
2022/03/06 08:01:46;;;;;;;;;85.00;66.25;;;;;;;;5108337;27;47077;-78
2022/03/06 08:04:11;;;;;;;;;85.50;68.25;;;;;;;;5103665;27;45306;-77
2022/03/06 08:06:37;;;;;;;;;81.00;63.25;;;;;;;;5109171;27;45230;-77
2022/03/06 08:09:04;;;;;;;;;86.25;67.75;;;;;;;;5102150;27;45476;-77
2022/03/06 08:11:29;;;;;;;;;85.50;70.50;;;;;;;;5101929;27;46091;-77
2022/03/06 08:13:55;;;;;;;;;85.50;69.50;;;;;;;;5100583;27;45309;-77
2022/03/06 08:16:20;;;;;;;;;85.75;70.25;;;;;;;;5101738;27;45539;-77
2022/03/06 08:18:45;;;;;;;;;81.75;63.50;;;;;;;;5100787;27;45868;-77
2022/03/06 08:21:10;;;;;;;;;81.00;64.25;;;;;;;;5100479;27;45580;-75
2022/03/06 08:23:35;;;;;;;;;83.00;64.50;;;;;;;;5102265;27;45356;-75
2022/03/06 08:26:01;;;;;;;;;83.25;69.25;;;;;;;;5100607;27;45319;-76
2022/03/06 08:28:26;;;;;;;;;80.00;62.00;;;;;;;;5101892;27;45318;-75
2022/03/06 08:30:51;;;;;;;;;83.50;64.75;;;;;;;;5100516;27;47295;-75
2022/03/06 08:33:16;;;;;;;;;75.75;60.25;;;;;;;;5100471;27;45782;-75
2022/03/06 08:35:41;;;;;;;;;81.25;64.00;;;;;;;;5101967;27;45554;-75
2022/03/06 08:38:07;;;;;;;;;74.50;60.00;;;;;;;;5109304;27;45343;-75
2022/03/06 08:40:32;;;;;;;;;83.00;61.50;;;;;;;;5105553;27;46437;-76
2022/03/06 08:42:57;;;;;;;;;80.50;62.00;;;;;;;;5102288;27;45413;-76
2022/03/06 08:45:23;;;;;;;;;76.00;60.50;;;;;;;;5101816;27;45315;-75
2022/03/06 08:47:48;;;;;;;;;73.50;60.25;;;;;;;;5101505;27;45356;-75
2022/03/06 08:50:13;;;;;;;;;78.00;60.25;;;;;;;;5101338;27;46667;-75
2022/03/06 08:52:38;;;;;;;;;74.50;60.25;;;;;;;;5100371;27;45859;-76
2022/03/06 08:55:04;;;;;;;;;76.50;60.50;;;;;;;;5102203;27;45287;-75
2022/03/06 08:57:29;;;;;;;;;76.50;59.25;;;;;;;;5104559;27;46009;-76
2022/03/06 08:59:54;;;;;;;;;74.25;59.75;;;;;;;;5102504;27;45334;-74
2022/03/06 09:02:19;;;;;;;;;75.50;58.50;;;;;;;;5102089;27;45347;-76
2022/03/06 09:04:45;;;;;;;;;69.00;54.75;;;;;;;;5111558;27;45495;-75
2022/03/06 09:07:10;;;;;;;;;69.00;56.75;;;;;;;;5128998;27;45577;-75
2022/03/06 09:09:35;;;;;;;;;75.00;59.00;;;;;;;;5102905;27;45227;-75
2022/03/06 09:12:01;;;;;;;;;68.00;55.00;;;;;;;;5105324;27;45279;-76
2022/03/06 09:14:26;;;;;;;;;71.25;55.50;;;;;;;;5103319;27;45275;-76
2022/03/06 09:16:51;;;;;;;;;73.25;59.25;;;;;;;;5104560;27;45536;-76
2022/03/06 09:19:16;;;;;;;;;67.25;55.00;;;;;;;;5141575;27;48128;-75
2022/03/06 09:21:43;;;;;;;;;67.50;54.00;;;;;;;;5146266;27;45218;-75
2022/03/06 09:24:08;;;;;;;;;66.00;53.25;;;;;;;;5144857;27;45444;-73
2022/03/06 09:26:34;;;;;;;;;66.75;53.50;;;;;;;;5143179;27;45323;-75
2022/03/06 09:28:59;;;;;;;;;66.50;53.25;;;;;;;;5142367;27;45395;-76
2022/03/06 09:31:25;;;;;;;;;66.00;52.25;;;;;;;;5134812;27;45410;-77
2022/03/06 09:33:51;;;;;;;;;61.50;49.25;;;;;;;;5101648;27;45362;-74
2022/03/06 09:36:16;;;;;;;;;62.25;50.75;;;;;;;;5100415;27;45293;-74
2022/03/06 09:38:42;;;;;;;;;62.50;48.75;;;;;;;;5099291;27;46067;-74
2022/03/06 09:41:09;;;;;;;;;61.50;52.25;;;;;;;;5100303;27;45325;-75
2022/03/06 09:43:34;;;;;;;;;63.75;49.25;;;;;;;;5099453;27;45317;-74
2022/03/06 09:46:05;;;;;;;;;53.25;44.75;;;;;;;;5100657;27;45172;-75
2022/03/06 09:48:30;;;;;;;;;57.50;46.00;;;;;;;;5099398;27;47189;-75
2022/03/06 09:50:56;;;;;;;;;55.25;45.75;;;;;;;;5099963;27;45305;-74
2022/03/06 09:53:21;;;;;;;;;50.50;40.00;;;;;;;;5100932;27;45341;-75
2022/03/06 09:55:46;;;;;;;;;48.50;42.00;;;;;;;;5119701;27;47225;-76
2022/03/06 09:58:11;;;;;;;;;59.00;46.50;;;;;;;;5121113;27;45258;-75
2022/03/06 10:00:36;;;;;;;;;57.00;45.00;;;;;;;;5110735;27;45483;-75
2022/03/06 10:03:03;;;;;;;;;51.25;43.75;;;;;;;;5099897;27;45539;-75
2022/03/06 10:05:31;;;;;;;;;36.00;33.00;;;;;;;;5099681;27;45318;-75
2022/03/06 10:08:13;;;;;;;;;51.25;39.50;;;;;;;;5099477;27;46071;-74
2022/03/06 10:10:39;;;;;;;;;46.75;37.50;;;;;;;;5118681;27;45276;-75
2022/03/06 10:13:07;;;;;;;;;48.25;39.00;;;;;;;;5101333;27;45557;-75
2022/03/06 10:15:32;;;;;;;;;54.25;43.25;;;;;;;;5113654;27;45916;-75
2022/03/06 10:18:01;;;;;;;;;52.25;42.50;;;;;;;;5109517;27;48202;-74
2022/03/06 10:20:28;;;;;;;;;51.75;41.75;;;;;;;;5099677;27;45321;-75
2022/03/06 10:22:53;;;;;;;;;50.50;41.00;;;;;;;;5098817;27;45208;-74
2022/03/06 10:25:21;;;;;;;;;45.00;37.75;;;;;;;;5099644;27;45296;-75
2022/03/06 10:27:46;;;;;;;;;38.75;36.00;;;;;;;;5113897;27;46423;-75
2022/03/06 10:30:31;;;;;;;;;40.25;36.50;;;;;;;;5120018;27;45295;-75
2022/03/06 10:32:58;;;;;;;;;39.50;35.75;;;;;;;;5120777;27;45332;-76
2022/03/06 10:35:33;;;;;;;;;34.50;33.25;;;;;;;;5119345;27;46462;-76
2022/03/06 10:37:59;;;;;;;;;29.00;25.50;;;;;;;;5120496;27;45290;-75
2022/03/06 10:40:34;;;;;;;;;42.50;37.75;;;;;;;;5117622;27;45337;-75
2022/03/06 10:42:59;;;;;;;;;43.00;36.50;;;;;;;;5113233;27;45353;-75
2022/03/06 10:45:25;;;;;;;;;45.00;36.75;;;;;;;;5118843;27;45293;-74
2022/03/06 10:47:50;;;;;;;;;40.25;36.00;;;;;;;;5120412;27;46311;-75
2022/03/06 10:50:25;;;;;;;;;35.50;33.50;;;;;;;;5118555;27;45295;-75
2022/03/06 10:52:53;;;;;;;;;38.75;33.50;;;;;;;;5111772;27;45482;-75
2022/03/06 10:55:30;;;;;;;;;37.00;33.25;;;;;;;;5097889;27;46030;-76
2022/03/06 10:57:55;;;;;;;;;33.50;32.25;;;;;;;;5120453;27;48705;-77
2022/03/06 11:00:21;;;;;;;;;28.00;26.00;;;;;;;;5126492;27;45387;-78
2022/03/06 11:02:46;;;;;;;;;31.50;29.25;;;;;;;;5125795;27;45385;-78
2022/03/06 11:05:11;;;;;;;;;35.25;32.50;;;;;;;;5114533;27;45278;-75
2022/03/06 11:07:37;;;;;;;;;28.00;27.50;;;;;;;;5101894;27;48570;-75
2022/03/06 11:10:02;;;;;;;;;29.00;27.75;;;;;;;;5103701;27;45253;-75
2022/03/06 11:12:28;;;;;;;;;32.00;31.75;;;;;;;;5105361;27;45239;-75
2022/03/06 11:14:54;;;;;;;;;35.00;31.00;;;;;;;;5104498;27;45436;-75
2022/03/06 11:17:20;;;;;;;;;31.00;29.75;;;;;;;;5107456;27;46295;-77
2022/03/06 11:19:45;;;;;;;;;29.50;26.50;;;;;;;;5144851;27;45368;-75
2022/03/06 11:22:24;;;;;;;;;37.50;33.00;;;;;;;;5145536;27;45277;-76
2022/03/06 11:24:55;;;;;;;;;33.00;30.25;;;;;;;;5144319;27;45245;-76
2022/03/06 11:27:24;;;;;;;;;35.25;31.75;;;;;;;;5144497;27;45355;-75
2022/03/06 11:30:11;;;;;;;;;34.00;30.75;;;;;;;;5147802;27;45315;-75
2022/03/06 11:32:37;;;;;;;;;29.75;29.75;;;;;;;;5150336;27;45392;-74
2022/03/06 11:35:04;;;;;;;;;33.00;31.00;;;;;;;;5149720;27;45599;-76
2022/03/06 11:37:43;;;;;;;;;34.00;31.00;;;;;;;;5149547;27;48157;-77
2022/03/06 11:40:28;;;;;;;;;31.25;28.25;;;;;;;;5142864;27;45302;-76
2022/03/06 11:42:55;;;;;;;;;27.25;27.25;;;;;;;;5147155;27;45389;-74
2022/03/06 11:45:40;;;;;;;;;32.00;30.25;;;;;;;;5145027;27;45434;-75
2022/03/06 11:48:05;;;;;;;;;34.00;30.50;;;;;;;;5145766;27;45324;-74
2022/03/06 11:50:30;;;;;;;;;27.50;27.25;;;;;;;;5144716;27;45236;-75
2022/03/06 11:52:56;;;;;;;;;30.25;27.25;;;;;;;;5145939;27;45219;-76
2022/03/06 11:55:31;;;;;;;;;22.50;21.50;;;;;;;;5146640;27;45591;-75
2022/03/06 11:57:57;;;;;;;;;34.00;30.00;;;;;;;;5111574;27;47218;-75
2022/03/06 12:00:27;;;;;;;;;35.50;31.00;;;;;;;;5126425;27;45252;-76
2022/03/06 12:02:53;;;;;;;;;29.25;27.25;;;;;;;;5127955;27;45370;-77
2022/03/06 12:05:20;;;;;;;;;35.25;31.00;;;;;;;;5129137;27;45313;-78
2022/03/06 12:07:46;;;;;;;;;32.00;28.50;;;;;;;;5130396;27;45447;-76
2022/03/06 12:10:13;;;;;;;;;27.75;27.50;;;;;;;;5129753;27;45438;-76
2022/03/06 12:12:38;;;;;;;;;31.25;25.25;;;;;;;;5124368;27;45310;-78
2022/03/06 12:15:14;;;;;;;;;29.75;28.75;;;;;;;;5120497;27;45845;-76
2022/03/06 12:17:40;;;;;;;;;28.00;28.00;;;;;;;;5126116;27;48204;-75
2022/03/06 12:20:08;;;;;;;;;30.50;29.00;;;;;;;;5122362;27;45897;-76
2022/03/06 12:22:33;;;;;;;;;28.00;26.50;;;;;;;;5124000;27;45287;-75
2022/03/06 12:25:08;;;;;;;;;28.75;28.75;;;;;;;;5123954;27;46089;-74
2022/03/06 12:27:34;;;;;;;;;31.50;31.00;;;;;;;;5124964;27;46121;-76
2022/03/06 12:30:00;;;;;;;;;28.25;27.00;;;;;;;;5114737;27;44748;-75
2022/03/06 12:32:29;;;;;;;;;32.75;31.25;;;;;;;;5120792;27;45307;-75
2022/03/06 12:35:06;;;;;;;;;32.75;31.75;;;;;;;;5123110;27;45349;-75
2022/03/06 12:37:40;;;;;;;;;30.00;29.25;;;;;;;;5119074;27;48275;-75
2022/03/06 12:40:06;;;;;;;;;23.50;23.25;;;;;;;;5103623;27;45275;-75
2022/03/06 12:42:32;;;;;;;;;31.50;28.00;;;;;;;;5103621;27;45268;-75
2022/03/06 12:45:00;;;;;;;;;23.00;23.00;;;;;;;;5101649;27;46047;-75
2022/03/06 12:47:26;;;;;;;;;26.33;26.00;;;;;;;;5101758;27;45382;-75
2022/03/06 12:49:52;;;;;;;;;18.33;18.33;;;;;;;;5110965;27;45285;-75
2022/03/06 12:52:21;;;;;;;;;17.25;15.25;;;;;;;;5118481;27;45281;-75
2022/03/06 12:54:50;;;;;;;;;25.50;21.25;;;;;;;;5100024;27;46003;-75
2022/03/06 12:57:16;;;;;;;;;25.67;25.00;;;;;;;;5115754;27;46453;-77
2022/03/06 12:59:43;;;;;;;;;26.67;24.67;;;;;;;;5124093;27;45224;-76
2022/03/06 13:02:08;;;;;;;;;27.75;23.50;;;;;;;;5123709;27;45290;-78
2022/03/06 13:04:34;;;;;;;;;32.50;27.00;;;;;;;;5122450;27;45879;-77
2022/03/06 13:07:00;;;;;;;;;26.33;25.00;;;;;;;;5109973;27;45385;-77
2022/03/06 13:09:27;;;;;;;;;29.33;27.00;;;;;;;;5103904;27;45331;-77
2022/03/06 13:11:53;;;;;;;;;26.00;24.25;;;;;;;;5104504;27;45407;-75
2022/03/06 13:14:25;;;;;;;;;19.67;19.67;;;;;;;;5103637;27;45210;-75
2022/03/06 13:16:53;;;;;;;;;27.67;22.33;;;;;;;;5101056;27;47246;-75
2022/03/06 13:19:19;;;;;;;;;16.67;15.33;;;;;;;;5111390;27;45330;-74
2022/03/06 13:21:46;;;;;;;;;25.67;24.33;;;;;;;;5103243;27;45638;-74
2022/03/06 13:24:15;;;;;;;;;25.33;25.00;;;;;;;;5101645;27;46132;-74
2022/03/06 13:26:41;;;;;;;;;23.00;23.00;;;;;;;;5106564;27;46057;-75
2022/03/06 13:29:06;;;;;;;;;19.00;18.33;;;;;;;;5103298;27;45611;-74
2022/03/06 13:31:42;;;;;;;;;28.00;26.33;;;;;;;;5103485;27;45508;-74
2022/03/06 13:34:08;;;;;;;;;27.00;24.33;;;;;;;;5107245;27;45520;-74
2022/03/06 13:36:35;;;;;;;;;21.33;20.00;;;;;;;;5102325;27;48400;-74
2022/03/06 13:39:02;;;;;;;;;23.33;22.00;;;;;;;;5106131;27;45375;-75
2022/03/06 13:41:27;;;;;;;;;26.00;25.00;;;;;;;;5104852;27;45249;-74
2022/03/06 13:43:53;;;;;;;;;31.00;28.33;;;;;;;;5104945;27;45336;-74
2022/03/06 13:46:20;;;;;;;;;27.00;27.00;;;;;;;;5100105;27;48276;-75
2022/03/06 13:48:45;;;;;;;;;29.67;28.67;;;;;;;;5103906;27;45460;-74
2022/03/06 13:51:21;;;;;;;;;28.00;24.00;;;;;;;;5104836;27;44709;-75
2022/03/06 13:53:57;;;;;;;;;30.00;28.00;;;;;;;;5107215;27;45455;-74
2022/03/06 13:56:34;;;;;;;;;27.00;26.33;;;;;;;;5107619;27;45380;-76
2022/03/06 13:58:59;;;;;;;;;26.67;26.67;;;;;;;;5107783;27;45395;-75
2022/03/06 14:01:26;;;;;;;;;25.00;25.00;;;;;;;;5107124;27;45349;-75
2022/03/06 14:03:56;;;;;;;;;23.00;22.67;;;;;;;;5105462;27;46096;-75
2022/03/06 14:06:31;;;;;;;;;27.33;25.00;;;;;;;;5104605;27;45369;-75
2022/03/06 14:08:56;;;;;;;;;30.67;28.00;;;;;;;;5104725;27;45379;-75
2022/03/06 14:11:26;;;;;;;;;20.33;20.33;;;;;;;;5103493;27;45356;-75